Time;durP1;ratioP1;P1;durP2;ratioP2;P2;SDS_P1;SDS_P2;PMS_P1;PMS_P2;Temp;Humidity;BMP_temperature;BMP_pressure;BME280_temperature;BME280_humidity;BME280_pressure;Samples;Min_cycle;Max_cycle;Signal;HPM_P1;HPM_P2
2023/05/28 00:02:41;;;;;;;7.40;4.10;;;24.60;50.30;;;;;;6217580;28;20133;-72
2023/05/28 00:05:46;;;;;;;8.48;4.45;;;24.50;49.80;;;;;;6217275;28;20049;-72
2023/05/28 00:08:57;;;;;;;12.82;4.65;;;24.50;49.90;;;;;;6199309;28;20041;-73
2023/05/28 00:12:08;;;;;;;14.13;4.70;;;24.40;50.00;;;;;;6199170;28;20069;-73
2023/05/28 00:15:14;;;;;;;8.68;4.72;;;24.40;50.10;;;;;;6227325;28;20089;-73
2023/05/28 00:18:21;;;;;;;10.32;4.07;;;24.40;50.10;;;;;;6240943;28;20126;-73
2023/05/28 00:21:26;;;;;;;12.82;4.03;;;24.30;50.10;;;;;;6241391;28;20052;-73
2023/05/28 00:24:31;;;;;;;11.50;4.10;;;24.30;50.10;;;;;;6223595;28;20025;-72
2023/05/28 00:27:40;;;;;;;6.63;3.70;;;24.30;50.20;;;;;;6224014;28;20025;-74
2023/05/28 00:30:46;;;;;;;8.85;3.97;;;24.30;50.20;;;;;;6241282;28;20037;-73
2023/05/28 00:33:53;;;;;;;11.73;4.45;;;24.20;50.30;;;;;;6240872;28;20143;-72
2023/05/28 00:37:01;;;;;;;8.15;3.90;;;24.10;50.40;;;;;;6239419;28;20089;-73
2023/05/28 00:40:09;;;;;;;11.68;3.67;;;24.00;50.60;;;;;;6240685;28;20083;-73
2023/05/28 00:43:19;;;;;;;5.93;3.28;;;24.00;50.80;;;;;;6240395;28;20034;-72
2023/05/28 00:46:30;;;;;;;11.43;3.97;;;23.90;50.90;;;;;;6239491;28;20029;-73
2023/05/28 00:49:39;;;;;;;;;;;23.90;51.00;;;;;;6240362;28;20136;-73
2023/05/28 00:52:51;;;;;;;11.25;3.65;;;23.80;51.00;;;;;;6239591;28;20048;-73
2023/05/28 00:55:59;;;;;;;8.48;4.07;;;23.80;51.00;;;;;;6216609;28;20026;-72
2023/05/28 00:59:12;;;;;;;7.38;3.90;;;23.70;51.00;;;;;;6215112;28;20113;-72
2023/05/28 01:02:23;;;;;;;7.50;3.70;;;23.70;51.30;;;;;;6214838;28;20108;-74
2023/05/28 01:05:34;;;;;;;15.18;4.18;;;23.60;51.50;;;;;;6197878;28;20112;-72
2023/05/28 01:08:41;;;;;;;7.57;4.07;;;23.50;51.50;;;;;;6214306;28;20034;-73
2023/05/28 01:11:52;;;;;;;10.18;4.47;;;23.50;51.60;;;;;;6227698;28;20049;-72
2023/05/28 01:14:59;;;;;;;12.32;3.90;;;23.50;51.80;;;;;;6239285;28;20037;-72
2023/05/28 01:18:13;;;;;;;8.85;4.45;;;23.40;51.80;;;;;;6239021;28;20040;-72
2023/05/28 01:21:27;;;;;;;7.95;4.05;;;23.40;52.00;;;;;;6220988;28;20037;-73
2023/05/28 01:24:41;;;;;;;6.32;4.10;;;23.40;52.10;;;;;;6239266;28;20040;-73
2023/05/28 01:27:51;;;;;;;11.32;3.97;;;23.40;52.20;;;;;;6239141;28;20029;-73
2023/05/28 01:31:00;;;;;;;18.83;4.28;;;23.30;52.20;;;;;;6239223;28;20698;-73
2023/05/28 01:34:20;;;;;;;9.80;4.00;;;23.20;52.20;;;;;;6220588;28;20307;-73
2023/05/28 01:37:33;;;;;;;10.25;4.50;;;23.30;52.30;;;;;;6221360;28;20112;-73
2023/05/28 01:40:44;;;;;;;7.65;4.50;;;23.20;52.40;;;;;;6221689;28;20163;-72
2023/05/28 01:43:52;;;;;;;11.50;4.50;;;23.20;52.50;;;;;;6220842;28;20151;-72
2023/05/28 01:47:02;;;;;;;7.80;4.22;;;23.20;52.70;;;;;;6239034;28;20059;-73
2023/05/28 01:50:13;;;;;;;9.88;3.92;;;23.20;52.80;;;;;;6239777;28;20119;-73
2023/05/28 01:53:23;;;;;;;10.48;4.38;;;23.20;53.00;;;;;;6244132;28;20029;-72
2023/05/28 01:56:30;;;;;;;7.93;4.55;;;23.20;53.10;;;;;;6233982;28;20101;-72
2023/05/28 01:59:41;;;;;;;8.13;4.00;;;23.20;53.10;;;;;;6197112;28;20030;-72
2023/05/28 02:02:52;;;;;;;7.95;4.53;;;23.20;53.70;;;;;;6196089;28;20068;-73
2023/05/28 02:05:59;;;;;;;7.43;4.72;;;23.20;53.30;;;;;;6196497;28;20131;-73
2023/05/28 02:09:08;;;;;;;8.50;4.15;;;23.20;53.20;;;;;;6235352;28;20072;-72
2023/05/28 02:12:22;;;;;;;6.50;3.85;;;23.20;53.00;;;;;;6238596;28;20044;-74
2023/05/28 02:15:30;;;;;;;5.30;3.63;;;23.20;53.00;;;;;;6238783;28;20030;-74
2023/05/28 02:18:41;;;;;;;7.13;3.40;;;23.10;52.90;;;;;;6220716;28;20037;-73
2023/05/28 02:21:50;;;;;;;9.40;3.92;;;23.10;53.50;;;;;;6242177;28;20029;-73
2023/05/28 02:24:56;;;;;;;10.13;4.00;;;23.10;52.90;;;;;;6243459;28;20199;-74
2023/05/28 02:28:06;;;;;;;10.55;4.60;;;23.00;52.80;;;;;;6243096;28;20172;-73
2023/05/28 02:31:22;;;;;;;7.72;3.55;;;23.00;52.80;;;;;;6225077;28;20064;-73
2023/05/28 02:34:31;;;;;;;7.70;3.80;;;23.00;52.80;;;;;;6221794;28;20026;-73
2023/05/28 02:37:41;;;;;;;;;;;23.00;52.80;;;;;;6219257;28;20026;-73
2023/05/28 02:40:54;;;;;;;6.55;3.88;;;23.00;52.80;;;;;;6201540;28;19913;-72
2023/05/28 02:44:01;;;;;;;8.90;4.18;;;23.00;52.80;;;;;;6218894;28;20105;-73
2023/05/28 02:47:13;;;;;;;9.52;4.53;;;23.00;53.00;;;;;;6218214;28;20052;-72
2023/05/28 02:50:26;;;;;;;9.25;4.63;;;23.00;53.10;;;;;;6216405;28;20176;-73
2023/05/28 02:54:14;;;;;;;10.07;4.38;;;23.00;53.20;;;;;;6166953;28;20128;-72
2023/05/28 02:57:26;;;;;;;6.75;4.35;;;23.00;53.30;;;;;;6234153;28;20065;-72
2023/05/28 03:00:33;;;;;;;11.15;4.47;;;23.00;53.60;;;;;;6242366;28;20063;-73
2023/05/28 03:03:42;;;;;;;8.00;4.15;;;22.90;53.70;;;;;;6224500;28;20520;-73
2023/05/28 03:06:57;;;;;;;13.23;4.85;;;22.90;53.80;;;;;;6242161;28;20243;-73
2023/05/28 03:10:08;;;;;;;10.43;5.30;;;22.90;53.80;;;;;;6242230;28;20146;-73
2023/05/28 03:13:22;;;;;;;11.15;4.80;;;22.90;53.80;;;;;;6241942;28;20037;-72
2023/05/28 03:16:32;;;;;;;9.70;4.10;;;22.90;53.90;;;;;;6224050;28;20111;-72
2023/05/28 03:19:42;;;;;;;12.63;4.78;;;22.90;53.90;;;;;;6223583;28;20060;-72
2023/05/28 03:23:02;;;;;;;11.73;4.13;;;22.90;53.90;;;;;;6242126;28;20029;-73
2023/05/28 03:26:23;;;;;;;9.57;3.53;;;22.90;53.80;;;;;;6220758;28;20041;-73
2023/05/28 03:29:31;;;;;;;10.20;4.78;;;22.90;53.60;;;;;;6241718;28;20393;-73
2023/05/28 03:32:46;;;;;;;8.57;4.38;;;22.90;53.60;;;;;;6233882;28;20029;-73
2023/05/28 03:35:57;;;;;;;11.85;4.28;;;22.90;53.60;;;;;;6217110;28;20076;-72
2023/05/28 03:39:07;;;;;;;7.22;4.28;;;22.80;53.50;;;;;;6216547;28;20113;-73
2023/05/28 03:42:20;;;;;;;9.00;4.28;;;22.80;53.50;;;;;;6216878;28;20469;-73
2023/05/28 03:45:30;;;;;;;11.30;4.72;;;22.70;53.60;;;;;;6216733;28;20038;-73
2023/05/28 03:48:39;;;;;;;12.77;4.50;;;22.70;53.70;;;;;;6216396;28;20041;-73
2023/05/28 03:51:47;;;;;;;10.25;4.70;;;22.70;53.80;;;;;;6222944;28;20835;-73
2023/05/28 03:54:58;;;;;;;12.27;4.93;;;22.60;53.90;;;;;;6241165;28;20099;-74
2023/05/28 03:58:08;;;;;;;13.75;4.40;;;22.60;54.10;;;;;;6217410;28;20030;-73
2023/05/28 04:01:23;;;;;;;9.45;4.80;;;22.60;54.60;;;;;;6234812;28;20095;-73
2023/05/28 04:04:31;;;;;;;11.23;4.85;;;22.50;55.10;;;;;;6241144;28;20105;-73
2023/05/28 04:07:36;;;;;;;5.05;3.72;;;22.50;55.40;;;;;;6240612;28;20102;-73
2023/05/28 04:10:47;;;;;;;8.90;5.15;;;22.50;55.50;;;;;;6240877;28;20029;-73
2023/05/28 04:13:57;;;;;;;9.65;4.50;;;22.50;55.70;;;;;;6240900;28;20078;-73
2023/05/28 04:17:12;;;;;;;7.78;4.22;;;22.40;55.80;;;;;;6240836;28;20132;-74
2023/05/28 04:20:24;;;;;;;13.45;4.90;;;22.40;56.00;;;;;;6240942;28;20025;-73
2023/05/28 04:23:32;;;;;;;11.00;4.47;;;22.30;56.20;;;;;;6237578;28;20041;-73
2023/05/28 04:26:41;;;;;;;13.20;5.10;;;22.30;56.40;;;;;;6240745;28;20033;-73
2023/05/28 04:29:49;;;;;;;12.00;4.93;;;22.20;56.50;;;;;;6240504;28;20037;-73
2023/05/28 04:33:02;;;;;;;11.75;4.50;;;22.20;56.60;;;;;;6230914;28;20084;-73
2023/05/28 04:36:19;;;;;;;8.80;4.47;;;22.20;56.80;;;;;;6214092;28;20116;-73
2023/05/28 04:39:28;;;;;;;8.15;4.32;;;22.20;57.00;;;;;;6213767;28;20121;-72
2023/05/28 04:42:37;;;;;;;7.15;4.70;;;22.10;57.20;;;;;;6213220;28;20041;-73
2023/05/28 04:45:43;;;;;;;10.05;4.97;;;22.10;57.40;;;;;;6215323;28;20026;-72
2023/05/28 04:48:50;;;;;;;9.95;4.97;;;22.10;57.50;;;;;;6215001;28;20668;-74
2023/05/28 04:52:06;;;;;;;13.65;5.68;;;22.10;57.40;;;;;;6223022;28;20037;-72
2023/05/28 04:55:14;;;;;;;10.02;4.70;;;22.10;57.40;;;;;;6239756;28;20037;-75
2023/05/28 04:58:29;;;;;;;15.30;5.50;;;22.20;57.40;;;;;;6197150;28;20108;-74
2023/05/28 05:01:38;;;;;;;8.98;4.55;;;22.10;57.40;;;;;;6215115;28;20057;-72
2023/05/28 05:04:48;;;;;;;10.70;5.60;;;22.20;57.40;;;;;;6214896;28;20127;-72
2023/05/28 05:08:04;;;;;;;8.68;5.00;;;22.10;57.20;;;;;;6215028;28;20038;-72
2023/05/28 05:11:16;;;;;;;9.95;5.10;;;22.10;57.20;;;;;;6212493;28;20045;-72
2023/05/28 05:14:25;;;;;;;8.40;5.28;;;22.10;57.10;;;;;;6215045;28;20030;-74
2023/05/28 05:17:33;;;;;;;11.75;5.53;;;22.10;57.10;;;;;;6196823;28;20036;-73
2023/05/28 05:20:39;;;;;;;;;;;22.10;57.00;;;;;;6219707;28;20029;-73
2023/05/28 05:23:53;;;;;;;8.85;4.57;;;22.10;57.00;;;;;;6221574;28;19917;-75
2023/05/28 05:27:08;;;;;;;11.52;5.20;;;22.20;56.90;;;;;;6239071;28;20143;-72
2023/05/28 05:30:16;;;;;;;7.40;5.15;;;22.20;56.80;;;;;;6239440;28;20570;-73
2023/05/28 05:33:24;;;;;;;;;;;22.20;56.90;;;;;;6239587;28;20086;-74
2023/05/28 05:36:46;;;;;;;14.05;5.10;;;22.10;56.80;;;;;;6239983;28;19909;-72
2023/05/28 05:40:11;;;;;;;11.68;5.20;;;22.10;56.80;;;;;;6239756;28;20056;-75
2023/05/28 05:43:41;;;;;;;9.18;4.90;;;22.00;57.00;;;;;;6221629;28;20033;-73
2023/05/28 05:46:50;;;;;;;9.90;5.30;;;22.00;57.10;;;;;;6239463;28;20119;-72
2023/05/28 05:49:57;;;;;;;13.00;4.82;;;22.00;57.20;;;;;;6221255;28;20060;-73
2023/05/28 05:53:12;;;;;;;9.50;4.95;;;22.10;57.20;;;;;;6239598;28;20532;-73
2023/05/28 05:56:21;;;;;;;14.27;4.72;;;22.20;57.10;;;;;;6236669;28;20026;-73
2023/05/28 05:59:29;;;;;;;7.65;4.25;;;22.30;57.50;;;;;;6223187;28;20182;-74
2023/05/28 06:02:39;;;;;;;11.40;4.57;;;22.30;56.60;;;;;;6223732;28;20048;-73
2023/05/28 06:06:08;;;;;;;17.38;4.97;;;22.30;56.30;;;;;;6205371;28;20058;-73
2023/05/28 06:09:44;;;;;;;8.45;4.30;;;22.50;56.20;;;;;;6219375;28;20105;-73
2023/05/28 06:13:01;;;;;;;8.77;4.78;;;22.50;55.90;;;;;;6219707;28;20037;-74
2023/05/28 06:16:19;;;;;;;15.30;5.10;;;22.50;55.80;;;;;;6221282;28;20037;-73
2023/05/28 06:19:25;;;;;;;16.00;4.50;;;22.60;55.60;;;;;;6243497;28;20033;-73
2023/05/28 06:22:31;;;;;;;;;;;22.70;55.50;;;;;;6225935;28;20041;-73
2023/05/28 06:25:43;;;;;;;9.52;4.65;;;22.80;55.40;;;;;;6243612;28;19967;-73
2023/05/28 06:28:57;;;;;;;11.75;4.95;;;22.90;55.10;;;;;;6243558;28;20207;-74
2023/05/28 06:32:13;;;;;;;9.35;4.90;;;22.90;55.00;;;;;;6241252;28;20090;-72
2023/05/28 06:35:23;;;;;;;9.50;4.38;;;23.10;54.90;;;;;;6219123;28;20026;-73
2023/05/28 06:38:31;;;;;;;9.40;4.60;;;23.20;54.40;;;;;;6218511;28;20073;-74
2023/05/28 06:41:40;;;;;;;8.18;5.07;;;23.20;54.10;;;;;;6218149;28;20418;-73
2023/05/28 06:44:59;;;;;;;9.80;4.72;;;23.30;53.90;;;;;;6216972;28;20022;-73
2023/05/28 06:48:13;;;;;;;11.05;4.68;;;23.40;53.80;;;;;;6221436;28;20025;-73
2023/05/28 06:51:25;;;;;;;8.57;4.53;;;23.50;53.60;;;;;;6206549;28;20037;-73
2023/05/28 06:54:36;;;;;;;9.25;4.85;;;23.70;53.00;;;;;;6218623;28;20037;-72
2023/05/28 06:57:46;;;;;;;11.48;5.25;;;23.80;52.60;;;;;;6239009;28;20064;-74
2023/05/28 07:01:30;;;;;;;9.48;4.40;;;23.90;52.40;;;;;;6242308;28;20124;-73
2023/05/28 07:04:57;;;;;;;11.32;6.00;;;24.10;52.10;;;;;;6242998;28;20049;-73
2023/05/28 07:08:15;;;;;;;20.15;6.22;;;24.10;51.90;;;;;;6241547;28;20088;-73
2023/05/28 07:11:23;;;;;;;10.38;5.70;;;24.20;51.90;;;;;;6242216;28;20044;-73
2023/05/28 07:14:30;;;;;;;14.07;5.78;;;24.30;51.70;;;;;;6225084;28;20051;-72
2023/05/28 07:17:40;;;;;;;11.18;5.70;;;24.50;51.70;;;;;;6242258;28;20132;-74
2023/05/28 07:20:51;;;;;;;13.90;6.18;;;24.50;51.30;;;;;;6225769;28;20021;-72
2023/05/28 07:24:16;;;;;;;10.93;4.88;;;24.70;51.20;;;;;;6240222;28;20048;-74
2023/05/28 07:27:27;;;;;;;13.00;4.93;;;24.80;51.00;;;;;;6242392;28;20125;-72
2023/05/28 07:30:35;;;;;;;8.73;4.85;;;24.90;50.50;;;;;;6242494;28;20030;-73
2023/05/28 07:33:46;;;;;;;9.82;4.65;;;25.00;50.20;;;;;;6210439;28;20037;-74
2023/05/28 07:36:56;;;;;;;9.07;4.70;;;25.00;49.70;;;;;;6217649;28;20034;-72
2023/05/28 07:40:10;;;;;;;8.18;4.53;;;25.00;49.70;;;;;;6215622;28;20137;-72
2023/05/28 07:43:24;;;;;;;11.43;4.45;;;25.20;49.60;;;;;;6217329;28;20672;-73
2023/05/28 07:46:36;;;;;;;8.27;4.72;;;25.40;49.30;;;;;;6238343;28;20175;-72
2023/05/28 07:50:07;;;;;;;7.93;4.72;;;25.40;48.60;;;;;;6241807;28;20037;-73
2023/05/28 07:53:41;;;;;;;9.67;4.47;;;25.50;47.90;;;;;;6219499;28;20030;-73
2023/05/28 07:57:02;;;;;;;9.73;4.32;;;25.60;47.80;;;;;;6231201;28;20036;-74
2023/05/28 08:00:19;;;;;;;12.55;4.45;;;25.90;47.40;;;;;;6207724;28;20052;-73
2023/05/28 08:03:48;;;;;;;9.38;4.78;;;26.10;47.00;;;;;;6241307;28;20673;-74
2023/05/28 08:07:02;;;;;;;6.63;4.35;;;26.20;46.10;;;;;;6222577;28;20031;-73
2023/05/28 08:10:14;;;;;;;6.65;3.97;;;26.30;45.40;;;;;;6242035;28;20048;-73
2023/05/28 08:13:25;;;;;;;8.57;3.97;;;26.40;45.00;;;;;;6241204;28;20044;-74
2023/05/28 08:16:33;;;;;;;8.55;4.18;;;26.50;44.80;;;;;;6241560;28;20033;-73
2023/05/28 08:20:01;;;;;;;5.47;3.60;;;26.70;44.50;;;;;;6225146;28;20155;-72
2023/05/28 08:23:41;;;;;;;8.68;3.92;;;26.80;44.10;;;;;;6225277;28;20044;-73
2023/05/28 08:26:51;;;;;;;7.40;4.05;;;27.00;43.20;;;;;;6240351;28;20095;-74
2023/05/28 08:30:02;;;;;;;26.67;4.28;;;27.00;43.00;;;;;;6240638;28;20029;-72
2023/05/28 08:33:12;;;;;;;5.82;3.95;;;27.10;43.10;;;;;;6229392;28;20037;-73
2023/05/28 08:36:25;;;;;;;18.60;3.85;;;27.10;42.80;;;;;;6216045;28;20032;-74
2023/05/28 08:39:36;;;;;;;7.45;3.75;;;27.20;42.80;;;;;;6215644;28;20053;-72
2023/05/28 08:42:46;;;;;;;6.18;3.50;;;27.20;42.50;;;;;;6235744;28;20045;-72
2023/05/28 08:45:57;;;;;;;6.80;3.80;;;27.30;42.40;;;;;;6240292;28;20523;-73
2023/05/28 08:49:19;;;;;;;12.75;4.10;;;27.40;42.00;;;;;;6239870;28;20385;-74
2023/05/28 08:52:28;;;;;;;7.55;4.00;;;27.50;41.80;;;;;;6210545;28;20069;-72
2023/05/28 08:55:33;;;;;;;14.13;5.57;;;27.60;41.80;;;;;;6200052;28;20071;-74
2023/05/28 08:58:56;;;;;;;7.10;4.37;;;27.80;41.70;;;;;;6221238;28;20044;-73
2023/05/28 09:02:11;;;;;;;7.50;5.25;;;27.90;41.60;;;;;;6239911;28;20264;-72
2023/05/28 09:05:22;;;;;;;11.13;3.75;;;28.00;41.30;;;;;;6239004;28;20070;-73
2023/05/28 09:08:28;;;;;;;6.32;3.65;;;28.00;41.20;;;;;;6239312;28;20056;-72
2023/05/28 09:11:37;;;;;;;11.00;4.03;;;27.90;41.20;;;;;;6221930;28;20094;-73
2023/05/28 09:14:46;;;;;;;9.95;3.58;;;27.90;41.30;;;;;;6239611;28;20101;-73
2023/05/28 09:17:58;;;;;;;7.72;3.95;;;27.90;41.20;;;;;;6221478;28;20045;-72
2023/05/28 09:21:13;;;;;;;7.70;3.95;;;28.00;41.30;;;;;;6239097;28;20025;-73
2023/05/28 09:24:33;;;;;;;12.50;4.53;;;28.10;41.10;;;;;;6239368;28;20129;-73
2023/05/28 09:27:46;;;;;;;7.07;3.85;;;28.20;40.80;;;;;;6239102;28;20205;-73
2023/05/28 09:31:08;;;;;;;6.07;4.00;;;28.40;40.70;;;;;;6220497;28;20029;-73
2023/05/28 09:34:21;;;;;;;13.00;4.53;;;28.50;40.40;;;;;;6220057;28;20492;-74
2023/05/28 09:37:30;;;;;;;9.25;4.00;;;28.50;40.60;;;;;;6220837;28;20108;-75
2023/05/28 09:40:46;;;;;;;10.38;3.90;;;28.60;40.10;;;;;;6239585;28;20029;-72
2023/05/28 09:44:05;;;;;;;12.98;4.25;;;28.60;40.00;;;;;;6221580;28;20117;-73
2023/05/28 09:47:21;;;;;;;11.88;4.60;;;28.70;39.90;;;;;;6238732;28;20029;-72
2023/05/28 09:50:28;;;;;;;9.27;4.57;;;28.80;39.90;;;;;;6221155;28;20033;-73
2023/05/28 09:53:41;;;;;;;10.25;4.45;;;28.90;39.90;;;;;;6217891;28;20037;-73
2023/05/28 09:56:48;;;;;;;8.77;3.83;;;29.00;39.80;;;;;;6227053;28;20061;-74
2023/05/28 10:00:19;;;;;;;11.20;3.80;;;29.10;39.70;;;;;;6238588;28;20017;-72
2023/05/28 10:03:47;;;;;;;6.25;4.18;;;29.30;39.60;;;;;;6239010;28;20037;-72
2023/05/28 10:06:55;;;;;;;8.88;4.30;;;29.30;39.20;;;;;;6239195;28;20034;-74
2023/05/28 10:10:07;;;;;;;13.13;4.00;;;29.20;39.30;;;;;;6239367;28;20053;-73
2023/05/28 10:13:12;;;;;;;7.60;4.20;;;29.30;39.30;;;;;;6238828;28;20033;-73
2023/05/28 10:16:23;;;;;;;7.25;4.57;;;29.30;39.40;;;;;;6238946;28;20037;-73
2023/05/28 10:19:30;;;;;;;12.00;4.35;;;29.30;39.20;;;;;;6239000;28;20170;-73
2023/05/28 10:22:43;;;;;;;7.05;3.90;;;29.30;39.30;;;;;;6239339;28;20041;-73
2023/05/28 10:25:50;;;;;;;6.53;3.92;;;29.20;39.40;;;;;;6221605;28;20037;-72
2023/05/28 10:29:01;;;;;;;6.63;4.28;;;29.20;39.50;;;;;;6221167;28;20429;-73
2023/05/28 10:32:16;;;;;;;8.43;4.28;;;29.40;39.60;;;;;;6236614;28;20116;-72
2023/05/28 10:35:24;;;;;;;6.03;3.90;;;29.30;39.50;;;;;;6236328;28;20127;-73
2023/05/28 10:38:31;;;;;;;7.28;4.18;;;29.50;39.50;;;;;;6238639;28;20068;-74
2023/05/28 10:41:39;;;;;;;7.55;4.40;;;29.50;39.30;;;;;;6222987;28;20067;-73
2023/05/28 10:45:03;;;;;;;8.60;4.05;;;29.60;39.20;;;;;;6242932;28;20083;-73
2023/05/28 10:48:20;;;;;;;8.00;4.25;;;29.70;39.10;;;;;;6224782;28;20034;-74
2023/05/28 10:52:06;;;;;;;14.27;5.20;;;29.90;39.00;;;;;;6239087;28;20477;-75
2023/05/28 10:55:12;;;;;;;7.72;3.72;;;30.00;38.90;;;;;;6219151;28;20074;-73
2023/05/28 10:58:38;;;;;;;8.55;4.15;;;30.10;38.70;;;;;;6241414;28;20070;-74
2023/05/28 11:02:07;;;;;;;5.90;3.78;;;30.50;38.40;;;;;;6242449;28;20026;-73
2023/05/28 11:05:13;;;;;;;;;;;31.60;36.80;;;;;;6243594;28;20037;-73
2023/05/28 11:08:23;;;;;;;6.70;4.10;;;32.60;35.50;;;;;;6242456;28;19932;-73
2023/05/28 11:11:29;;;;;;;9.68;4.45;;;33.60;34.00;;;;;;6242421;28;20030;-74
2023/05/28 11:14:40;;;;;;;9.60;4.63;;;34.50;32.80;;;;;;6242848;28;20061;-74
2023/05/28 11:17:49;;;;;;;8.73;4.38;;;35.20;31.60;;;;;;6242535;28;20370;-74
2023/05/28 11:21:08;;;;;;;6.60;4.00;;;35.70;30.90;;;;;;6242655;28;20109;-73
2023/05/28 11:24:18;;;;;;;7.05;3.80;;;36.20;30.80;;;;;;6242748;28;20029;-74
2023/05/28 11:27:28;;;;;;;6.90;3.97;;;36.40;29.80;;;;;;6242457;28;20026;-74
2023/05/28 11:30:38;;;;;;;6.03;3.75;;;36.50;29.50;;;;;;6242437;28;20143;-73
2023/05/28 11:33:49;;;;;;;7.88;4.30;;;36.60;29.30;;;;;;6241556;28;20056;-74
2023/05/28 11:37:01;;;;;;;8.07;3.92;;;36.70;29.20;;;;;;6240676;28;20087;-73
2023/05/28 11:40:16;;;;;;;5.82;3.85;;;37.00;29.10;;;;;;6241949;28;20034;-73
2023/05/28 11:43:28;;;;;;;5.43;3.63;;;37.10;28.90;;;;;;6241684;28;20385;-73
2023/05/28 11:46:33;;;;;;;6.40;3.85;;;37.20;28.70;;;;;;6241729;28;20044;-73
2023/05/28 11:49:46;;;;;;;9.77;4.07;;;37.50;28.60;;;;;;6241514;28;20052;-73
2023/05/28 11:52:58;;;;;;;7.55;3.72;;;37.80;28.40;;;;;;6241314;28;20103;-72
2023/05/28 11:56:17;;;;;;;9.68;3.88;;;38.10;28.10;;;;;;6241778;28;20057;-74
2023/05/28 11:59:26;;;;;;;8.38;3.55;;;38.30;27.90;;;;;;6223899;28;20036;-72
2023/05/28 12:02:31;;;;;;;8.70;3.53;;;38.30;27.60;;;;;;6223780;28;20025;-74
2023/05/28 12:05:47;;;;;;;11.35;3.90;;;38.50;27.30;;;;;;6241910;28;20068;-74
2023/05/28 12:08:57;;;;;;;10.48;4.10;;;38.80;27.10;;;;;;6241365;28;20369;-73
2023/05/28 12:12:09;;;;;;;3.90;3.50;;;38.80;26.70;;;;;;6223560;28;20029;-73
2023/05/28 12:15:25;;;;;;;5.40;3.90;;;38.70;26.80;;;;;;6241195;28;20068;-74
2023/05/28 12:18:34;;;;;;;5.22;3.95;;;39.00;26.60;;;;;;6240591;28;20041;-74
2023/05/28 12:21:45;;;;;;;6.28;3.20;;;39.30;26.30;;;;;;6240803;28;20132;-73
2023/05/28 12:24:53;;;;;;;6.60;3.53;;;39.70;26.10;;;;;;6241771;28;20037;-73
2023/05/28 12:28:01;;;;;;;9.25;3.50;;;39.90;25.20;;;;;;6240379;28;20127;-74
2023/05/28 12:31:15;;;;;;;8.18;3.78;;;40.00;25.10;;;;;;6223611;28;20083;-74
2023/05/28 12:34:24;;;;;;;8.95;3.88;;;40.10;25.00;;;;;;6240076;28;20100;-73
2023/05/28 12:37:31;;;;;;;4.82;2.95;;;40.40;24.80;;;;;;6222037;28;20030;-73
2023/05/28 12:40:39;;;;;;;6.05;3.20;;;40.50;24.30;;;;;;6240226;28;20048;-73
2023/05/28 12:43:47;;;;;;;5.80;3.50;;;40.60;23.80;;;;;;6240671;28;20084;-74
2023/05/28 12:46:55;;;;;;;5.68;3.63;;;40.80;23.50;;;;;;6240878;28;20412;-74
2023/05/28 12:50:06;;;;;;;4.75;3.60;;;40.60;23.40;;;;;;6240801;28;20037;-72
2023/05/28 12:53:17;;;;;;;8.55;4.07;;;40.40;23.60;;;;;;6240116;28;20151;-72
2023/05/28 12:56:30;;;;;;;4.95;3.13;;;40.60;23.60;;;;;;6230329;28;20038;-72
2023/05/28 12:59:39;;;;;;;6.20;3.20;;;41.00;23.30;;;;;;6215321;28;20030;-73
2023/05/28 13:02:49;;;;;;;6.47;3.55;;;41.30;22.70;;;;;;6215273;28;20045;-72
2023/05/28 13:06:02;;;;;;;8.43;3.58;;;41.60;22.70;;;;;;6214578;28;20116;-72
2023/05/28 13:09:16;;;;;;;6.18;3.90;;;42.10;22.60;;;;;;6215438;28;20079;-74
2023/05/28 13:12:27;;;;;;;8.10;3.33;;;42.90;22.30;;;;;;6215217;28;20113;-72
2023/05/28 13:15:32;;;;;;;;;;;42.60;22.30;;;;;;6198597;28;20461;-73
2023/05/28 13:18:42;;;;;;;8.05;3.70;;;42.70;22.50;;;;;;6197534;28;19920;-73
2023/05/28 13:21:51;;;;;;;6.25;3.60;;;42.50;22.50;;;;;;6218191;28;20100;-73
2023/05/28 13:25:00;;;;;;;7.82;4.03;;;42.30;22.90;;;;;;6239289;28;20131;-72
2023/05/28 13:28:09;;;;;;;9.68;3.60;;;42.00;23.00;;;;;;6239027;28;20083;-72
2023/05/28 13:31:21;;;;;;;6.22;3.80;;;41.10;23.50;;;;;;6222341;28;20053;-73
2023/05/28 13:34:29;;;;;;;7.90;3.85;;;40.00;24.50;;;;;;6239005;28;20030;-73
2023/05/28 13:37:35;;;;;;;6.93;3.80;;;39.00;25.30;;;;;;6239429;28;20083;-71
2023/05/28 13:40:45;;;;;;;5.90;3.55;;;38.20;25.80;;;;;;6237578;28;20031;-71
2023/05/28 13:43:56;;;;;;;6.70;3.85;;;37.50;26.40;;;;;;6238916;28;20029;-72
2023/05/28 13:47:07;;;;;;;10.80;4.95;;;36.90;27.10;;;;;;6238733;28;20128;-72
2023/05/28 13:50:16;;;;;;;8.18;3.42;;;36.20;27.20;;;;;;6239153;28;20129;-73
2023/05/28 13:53:33;;;;;;;8.80;3.95;;;35.60;27.40;;;;;;6238842;28;20045;-72
2023/05/28 13:56:45;;;;;;;7.63;3.63;;;35.10;27.80;;;;;;6238593;28;20109;-72
2023/05/28 13:59:52;;;;;;;8.73;3.50;;;34.60;28.20;;;;;;6238890;28;20095;-73
2023/05/28 14:03:01;;;;;;;4.90;3.33;;;34.20;28.70;;;;;;6239140;28;20509;-72
2023/05/28 14:06:08;;;;;;;7.60;3.38;;;33.80;29.10;;;;;;6239336;28;20033;-71
2023/05/28 14:09:18;;;;;;;6.00;3.15;;;33.50;29.40;;;;;;6239125;28;20112;-73
2023/05/28 14:12:30;;;;;;;7.30;3.78;;;33.20;29.40;;;;;;6239089;28;20061;-73
2023/05/28 14:15:35;;;;;;;6.53;3.65;;;33.00;29.50;;;;;;6239157;28;20133;-72
2023/05/28 14:18:41;;;;;;;12.48;3.67;;;32.80;29.70;;;;;;6243524;28;20068;-74
2023/05/28 14:21:47;;;;;;;9.15;3.90;;;32.70;29.80;;;;;;6226398;28;20358;-72
2023/05/28 14:25:03;;;;;;;7.25;3.33;;;32.50;30.00;;;;;;6243600;28;20025;-73
2023/05/28 14:28:11;;;;;;;10.45;3.60;;;32.30;30.10;;;;;;6244045;28;20091;-73
2023/05/28 14:31:30;;;;;;;6.75;3.53;;;32.20;30.10;;;;;;6243353;28;20074;-72
2023/05/28 14:34:38;;;;;;;6.90;2.80;;;32.10;30.10;;;;;;6217194;28;20060;-73
2023/05/28 14:37:46;;;;;;;5.18;3.50;;;32.00;31.00;;;;;;6219212;28;20033;-72
2023/05/28 14:40:59;;;;;;;8.50;3.27;;;31.80;31.60;;;;;;6207541;28;20648;-73
2023/05/28 14:44:09;;;;;;;5.40;3.20;;;31.60;32.30;;;;;;6225233;28;20061;-72
2023/05/28 14:47:22;;;;;;;7.22;3.80;;;31.50;32.70;;;;;;6243087;28;20068;-74
2023/05/28 14:50:33;;;;;;;8.73;3.20;;;31.40;32.70;;;;;;6243295;28;20555;-75
2023/05/28 14:53:40;;;;;;;5.72;2.80;;;31.30;32.60;;;;;;6243079;28;20101;-72
2023/05/28 14:56:52;;;;;;;8.05;3.35;;;31.40;32.30;;;;;;6212805;28;20029;-73
2023/05/28 15:00:06;;;;;;;8.05;2.88;;;31.40;32.10;;;;;;6218217;28;20315;-73
2023/05/28 15:03:16;;;;;;;8.45;3.17;;;31.40;32.10;;;;;;6217998;28;20037;-73
2023/05/28 15:06:26;;;;;;;8.73;2.70;;;31.60;31.60;;;;;;6217908;28;20034;-73
2023/05/28 15:09:35;;;;;;;5.32;2.90;;;31.70;31.40;;;;;;6217475;28;20171;-73
2023/05/28 15:12:42;;;;;;;5.47;2.97;;;31.80;31.00;;;;;;6218114;28;20474;-73
2023/05/28 15:15:53;;;;;;;8.57;3.25;;;31.80;30.90;;;;;;6232938;28;20112;-73
2023/05/28 15:19:04;;;;;;;7.13;3.42;;;32.10;31.30;;;;;;6242062;28;20699;-72
2023/05/28 15:22:12;;;;;;;5.90;3.17;;;32.20;30.10;;;;;;6242410;28;20031;-73
2023/05/28 15:25:23;;;;;;;4.97;3.35;;;32.00;30.40;;;;;;6242095;28;20115;-74
2023/05/28 15:28:33;;;;;;;9.70;3.00;;;31.70;30.60;;;;;;6241404;28;20073;-73
2023/05/28 15:31:41;;;;;;;6.13;3.28;;;31.40;30.60;;;;;;6242142;28;20041;-74
2023/05/28 15:34:47;;;;;;;5.30;4.00;;;31.00;30.90;;;;;;6241815;28;20017;-72
2023/05/28 15:37:56;;;;;;;7.40;3.17;;;31.00;31.40;;;;;;6241512;28;20110;-74
2023/05/28 15:41:09;;;;;;;5.32;3.10;;;30.80;31.70;;;;;;6242034;28;20085;-72
2023/05/28 15:44:24;;;;;;;9.70;3.63;;;30.60;31.70;;;;;;6241832;28;20032;-72
2023/05/28 15:47:30;;;;;;;6.28;3.30;;;30.50;32.70;;;;;;6242267;28;20038;-72
2023/05/28 15:50:35;;;;;;;7.07;3.53;;;30.30;32.70;;;;;;6242050;28;20070;-73
2023/05/28 15:53:43;;;;;;;5.93;2.90;;;30.10;33.10;;;;;;6224194;28;20025;-73
2023/05/28 15:56:52;;;;;;;9.65;2.78;;;30.00;33.60;;;;;;6210817;28;20026;-73
2023/05/28 15:59:57;;;;;;;13.30;3.60;;;29.80;34.00;;;;;;6217019;28;20040;-73
2023/05/28 16:03:14;;;;;;;6.35;3.10;;;29.70;34.30;;;;;;6216911;28;20045;-72
2023/05/28 16:06:21;;;;;;;5.03;3.05;;;29.50;34.40;;;;;;6216216;28;20128;-72
2023/05/28 16:09:27;;;;;;;7.70;2.88;;;29.60;34.70;;;;;;6216806;28;20041;-72
2023/05/28 16:12:35;;;;;;;6.40;2.92;;;29.40;35.00;;;;;;6216616;28;20108;-72
2023/05/28 16:15:47;;;;;;;5.55;2.90;;;29.30;35.30;;;;;;6216863;28;20521;-73
2023/05/28 16:19:01;;;;;;;9.82;3.67;;;29.20;35.70;;;;;;6216727;28;20534;-73
2023/05/28 16:22:11;;;;;;;6.20;3.00;;;29.10;36.00;;;;;;6216806;28;20022;-74
2023/05/28 16:25:21;;;;;;;6.63;3.42;;;29.00;36.30;;;;;;6216368;28;20080;-72
2023/05/28 16:28:28;;;;;;;8.20;3.30;;;29.00;36.60;;;;;;6216468;28;20025;-72
2023/05/28 16:31:36;;;;;;;8.63;2.83;;;28.90;36.80;;;;;;6216185;28;20025;-73
2023/05/28 16:34:46;;;;;;;6.83;3.30;;;28.90;37.10;;;;;;6238507;28;20275;-74
2023/05/28 16:38:00;;;;;;;5.63;2.97;;;28.80;37.40;;;;;;6239875;28;20082;-74